sensor_id;sensor_type;location;lat;lon;timestamp;temperature;humidity
32173;DHT22;18679;45.190;5.722;2022-11-09T00:02:56;20.20;44.40
32173;DHT22;18679;45.190;5.722;2022-11-09T00:05:58;20.20;44.20
32173;DHT22;18679;45.190;5.722;2022-11-09T00:09:01;20.20;44.20
32173;DHT22;18679;45.190;5.722;2022-11-09T00:12:02;20.10;44.10
32173;DHT22;18679;45.190;5.722;2022-11-09T00:15:05;20.10;44.20
32173;DHT22;18679;45.190;5.722;2022-11-09T00:18:06;20.10;44.20
32173;DHT22;18679;45.190;5.722;2022-11-09T00:21:09;20.10;44.30
32173;DHT22;18679;45.190;5.722;2022-11-09T00:24:11;20.10;44.30
32173;DHT22;18679;45.190;5.722;2022-11-09T00:27:12;20.20;44.30
32173;DHT22;18679;45.190;5.722;2022-11-09T00:30:13;20.30;44.20
32173;DHT22;18679;45.190;5.722;2022-11-09T00:33:15;20.40;44.00
32173;DHT22;18679;45.190;5.722;2022-11-09T00:36:18;20.50;43.90
32173;DHT22;18679;45.190;5.722;2022-11-09T00:39:19;20.60;43.70
32173;DHT22;18679;45.190;5.722;2022-11-09T00:42:20;20.70;43.50
32173;DHT22;18679;45.190;5.722;2022-11-09T00:45:21;20.70;43.40
32173;DHT22;18679;45.190;5.722;2022-11-09T00:48:22;20.80;43.40
32173;DHT22;18679;45.190;5.722;2022-11-09T00:51:23;20.80;43.20
32173;DHT22;18679;45.190;5.722;2022-11-09T00:54:24;20.80;43.10
32173;DHT22;18679;45.190;5.722;2022-11-09T00:57:26;20.80;43.00
32173;DHT22;18679;45.190;5.722;2022-11-09T01:00:27;20.80;43.00
32173;DHT22;18679;45.190;5.722;2022-11-09T01:03:28;20.80;42.90
32173;DHT22;18679;45.190;5.722;2022-11-09T01:06:30;20.90;42.70
32173;DHT22;18679;45.190;5.722;2022-11-09T01:09:31;20.90;42.70
32173;DHT22;18679;45.190;5.722;2022-11-09T01:12:32;21.00;42.60
32173;DHT22;18679;45.190;5.722;2022-11-09T01:15:33;21.10;42.40
32173;DHT22;18679;45.190;5.722;2022-11-09T01:18:38;21.10;42.30
32173;DHT22;18679;45.190;5.722;2022-11-09T01:21:39;21.20;42.00
32173;DHT22;18679;45.190;5.722;2022-11-09T01:24:41;21.30;41.90
32173;DHT22;18679;45.190;5.722;2022-11-09T01:27:42;21.40;41.70
32173;DHT22;18679;45.190;5.722;2022-11-09T01:30:43;21.50;41.50
32173;DHT22;18679;45.190;5.722;2022-11-09T01:33:44;21.50;41.30
32173;DHT22;18679;45.190;5.722;2022-11-09T01:36:45;21.60;41.00
32173;DHT22;18679;45.190;5.722;2022-11-09T01:39:49;21.70;41.00
32173;DHT22;18679;45.190;5.722;2022-11-09T01:42:50;21.70;40.70
32173;DHT22;18679;45.190;5.722;2022-11-09T01:49:36;21.80;40.60
32173;DHT22;18679;45.190;5.722;2022-11-09T01:52:39;21.90;40.40
32173;DHT22;18679;45.190;5.722;2022-11-09T01:55:43;21.90;40.00
32173;DHT22;18679;45.190;5.722;2022-11-09T01:59:00;21.90;39.90
32173;DHT22;18679;45.190;5.722;2022-11-09T02:02:03;21.90;39.80
32173;DHT22;18679;45.190;5.722;2022-11-09T02:05:11;22.00;39.70
32173;DHT22;18679;45.190;5.722;2022-11-09T02:08:17;21.90;39.50
32173;DHT22;18679;45.190;5.722;2022-11-09T02:11:22;22.00;39.60
32173;DHT22;18679;45.190;5.722;2022-11-09T02:14:25;22.00;39.50
32173;DHT22;18679;45.190;5.722;2022-11-09T02:17:29;22.00;39.40
32173;DHT22;18679;45.190;5.722;2022-11-09T02:20:30;22.00;39.40
32173;DHT22;18679;45.190;5.722;2022-11-09T02:23:43;22.00;39.50
32173;DHT22;18679;45.190;5.722;2022-11-09T02:26:49;22.00;39.30
32173;DHT22;18679;45.190;5.722;2022-11-09T02:29:51;22.00;39.30
32173;DHT22;18679;45.190;5.722;2022-11-09T02:32:52;22.00;39.30
32173;DHT22;18679;45.190;5.722;2022-11-09T02:35:53;22.00;39.30
32173;DHT22;18679;45.190;5.722;2022-11-09T02:38:56;22.00;39.30
32173;DHT22;18679;45.190;5.722;2022-11-09T02:42:16;22.00;39.20
32173;DHT22;18679;45.190;5.722;2022-11-09T02:45:18;22.00;39.20
32173;DHT22;18679;45.190;5.722;2022-11-09T02:48:19;22.10;39.00
32173;DHT22;18679;45.190;5.722;2022-11-09T02:51:22;22.10;39.00
32173;DHT22;18679;45.190;5.722;2022-11-09T02:54:24;22.10;39.00
32173;DHT22;18679;45.190;5.722;2022-11-09T02:57:27;22.10;38.80
32173;DHT22;18679;45.190;5.722;2022-11-09T03:00:28;22.10;38.80
32173;DHT22;18679;45.190;5.722;2022-11-09T03:03:29;22.10;39.00
32173;DHT22;18679;45.190;5.722;2022-11-09T03:06:30;22.10;38.90
32173;DHT22;18679;45.190;5.722;2022-11-09T03:09:36;22.20;38.90
32173;DHT22;18679;45.190;5.722;2022-11-09T03:12:37;22.20;38.80
32173;DHT22;18679;45.190;5.722;2022-11-09T03:15:42;22.20;39.60
32173;DHT22;18679;45.190;5.722;2022-11-09T03:18:43;22.20;38.90
32173;DHT22;18679;45.190;5.722;2022-11-09T03:21:44;22.20;38.80
32173;DHT22;18679;45.190;5.722;2022-11-09T03:24:46;22.10;38.70
32173;DHT22;18679;45.190;5.722;2022-11-09T03:27:47;22.20;38.80
32173;DHT22;18679;45.190;5.722;2022-11-09T03:30:48;22.20;38.50
32173;DHT22;18679;45.190;5.722;2022-11-09T03:33:49;22.20;38.60
32173;DHT22;18679;45.190;5.722;2022-11-09T03:36:51;22.20;38.50
32173;DHT22;18679;45.190;5.722;2022-11-09T03:39:53;22.20;38.50
32173;DHT22;18679;45.190;5.722;2022-11-09T03:42:55;22.20;38.30
32173;DHT22;18679;45.190;5.722;2022-11-09T03:45:57;22.20;38.30
32173;DHT22;18679;45.190;5.722;2022-11-09T03:48:59;22.30;38.30
32173;DHT22;18679;45.190;5.722;2022-11-09T03:52:00;22.30;38.20
32173;DHT22;18679;45.190;5.722;2022-11-09T03:55:03;22.30;38.20
32173;DHT22;18679;45.190;5.722;2022-11-09T03:58:05;22.30;38.30
32173;DHT22;18679;45.190;5.722;2022-11-09T04:01:07;22.30;38.30
32173;DHT22;18679;45.190;5.722;2022-11-09T04:04:08;22.30;38.40
32173;DHT22;18679;45.190;5.722;2022-11-09T04:07:09;22.30;38.40
32173;DHT22;18679;45.190;5.722;2022-11-09T04:10:11;22.30;38.40
32173;DHT22;18679;45.190;5.722;2022-11-09T04:13:12;22.30;38.30
32173;DHT22;18679;45.190;5.722;2022-11-09T04:16:13;22.20;38.40
32173;DHT22;18679;45.190;5.722;2022-11-09T04:19:14;22.20;38.60
32173;DHT22;18679;45.190;5.722;2022-11-09T04:22:15;22.20;38.60
32173;DHT22;18679;45.190;5.722;2022-11-09T04:25:16;22.20;38.60
32173;DHT22;18679;45.190;5.722;2022-11-09T04:28:17;22.20;38.60
32173;DHT22;18679;45.190;5.722;2022-11-09T04:31:18;22.30;38.60
32173;DHT22;18679;45.190;5.722;2022-11-09T04:34:20;22.30;38.60
32173;DHT22;18679;45.190;5.722;2022-11-09T04:37:21;22.30;38.60
32173;DHT22;18679;45.190;5.722;2022-11-09T04:40:23;22.30;38.60
32173;DHT22;18679;45.190;5.722;2022-11-09T04:43:25;22.40;38.70
32173;DHT22;18679;45.190;5.722;2022-11-09T04:46:26;22.40;38.70
32173;DHT22;18679;45.190;5.722;2022-11-09T04:49:28;22.40;38.70
32173;DHT22;18679;45.190;5.722;2022-11-09T04:52:29;22.40;38.80
32173;DHT22;18679;45.190;5.722;2022-11-09T04:55:30;22.30;38.90
32173;DHT22;18679;45.190;5.722;2022-11-09T04:58:31;22.30;38.90
32173;DHT22;18679;45.190;5.722;2022-11-09T05:01:33;22.30;38.80
32173;DHT22;18679;45.190;5.722;2022-11-09T05:04:34;22.30;38.90
32173;DHT22;18679;45.190;5.722;2022-11-09T05:07:36;22.40;39.00
32173;DHT22;18679;45.190;5.722;2022-11-09T05:10:37;22.30;39.10
32173;DHT22;18679;45.190;5.722;2022-11-09T05:13:38;22.30;39.20
32173;DHT22;18679;45.190;5.722;2022-11-09T05:16:39;22.30;39.20
32173;DHT22;18679;45.190;5.722;2022-11-09T05:19:40;22.30;39.30
32173;DHT22;18679;45.190;5.722;2022-11-09T05:22:41;22.30;39.30
32173;DHT22;18679;45.190;5.722;2022-11-09T05:26:01;22.30;39.40
32173;DHT22;18679;45.190;5.722;2022-11-09T05:29:04;22.30;39.50
32173;DHT22;18679;45.190;5.722;2022-11-09T05:32:05;22.30;39.50
32173;DHT22;18679;45.190;5.722;2022-11-09T05:35:06;22.20;39.80
32173;DHT22;18679;45.190;5.722;2022-11-09T05:38:07;22.00;40.00
32173;DHT22;18679;45.190;5.722;2022-11-09T05:41:09;21.80;40.10
32173;DHT22;18679;45.190;5.722;2022-11-09T05:44:10;21.40;40.30
32173;DHT22;18679;45.190;5.722;2022-11-09T05:47:11;20.90;40.80
32173;DHT22;18679;45.190;5.722;2022-11-09T05:50:14;20.40;41.40
32173;DHT22;18679;45.190;5.722;2022-11-09T05:53:15;20.10;42.20
32173;DHT22;18679;45.190;5.722;2022-11-09T05:56:16;19.70;42.60
32173;DHT22;18679;45.190;5.722;2022-11-09T05:59:17;19.50;43.30
32173;DHT22;18679;45.190;5.722;2022-11-09T06:02:18;19.20;43.90
32173;DHT22;18679;45.190;5.722;2022-11-09T06:05:19;19.00;44.20
32173;DHT22;18679;45.190;5.722;2022-11-09T06:08:21;18.90;44.40
32173;DHT22;18679;45.190;5.722;2022-11-09T06:11:22;18.70;44.70
32173;DHT22;18679;45.190;5.722;2022-11-09T06:14:23;18.60;45.10
32173;DHT22;18679;45.190;5.722;2022-11-09T06:17:24;18.50;45.30
32173;DHT22;18679;45.190;5.722;2022-11-09T06:20:26;18.40;45.50
32173;DHT22;18679;45.190;5.722;2022-11-09T06:23:29;18.30;45.60
32173;DHT22;18679;45.190;5.722;2022-11-09T06:26:30;18.30;45.80
32173;DHT22;18679;45.190;5.722;2022-11-09T06:29:31;18.20;45.90
32173;DHT22;18679;45.190;5.722;2022-11-09T06:32:32;18.20;46.10
32173;DHT22;18679;45.190;5.722;2022-11-09T06:35:33;18.10;46.30
32173;DHT22;18679;45.190;5.722;2022-11-09T06:38:35;18.10;46.50
32173;DHT22;18679;45.190;5.722;2022-11-09T06:41:36;18.00;46.70
32173;DHT22;18679;45.190;5.722;2022-11-09T06:44:37;17.90;47.00
32173;DHT22;18679;45.190;5.722;2022-11-09T06:47:38;17.90;47.30
32173;DHT22;18679;45.190;5.722;2022-11-09T06:50:40;17.80;47.50
32173;DHT22;18679;45.190;5.722;2022-11-09T06:53:42;17.80;47.60
32173;DHT22;18679;45.190;5.722;2022-11-09T06:56:43;17.80;47.90
32173;DHT22;18679;45.190;5.722;2022-11-09T06:59:44;17.70;48.30
32173;DHT22;18679;45.190;5.722;2022-11-09T07:02:45;17.70;48.60
32173;DHT22;18679;45.190;5.722;2022-11-09T07:05:47;17.60;48.90
32173;DHT22;18679;45.190;5.722;2022-11-09T07:08:48;17.60;49.40
32173;DHT22;18679;45.190;5.722;2022-11-09T07:11:49;17.60;49.50
32173;DHT22;18679;45.190;5.722;2022-11-09T07:14:50;17.60;49.90
32173;DHT22;18679;45.190;5.722;2022-11-09T07:17:56;17.60;49.90
32173;DHT22;18679;45.190;5.722;2022-11-09T07:20:57;17.60;50.00
32173;DHT22;18679;45.190;5.722;2022-11-09T07:23:58;17.60;50.10
32173;DHT22;18679;45.190;5.722;2022-11-09T07:26:59;17.60;50.40
32173;DHT22;18679;45.190;5.722;2022-11-09T07:30:01;17.60;50.70
32173;DHT22;18679;45.190;5.722;2022-11-09T07:33:03;17.60;51.10
32173;DHT22;18679;45.190;5.722;2022-11-09T07:36:05;17.50;51.40
32173;DHT22;18679;45.190;5.722;2022-11-09T07:39:06;17.50;51.90
32173;DHT22;18679;45.190;5.722;2022-11-09T07:42:07;17.50;52.30
32173;DHT22;18679;45.190;5.722;2022-11-09T07:45:10;17.50;52.40
32173;DHT22;18679;45.190;5.722;2022-11-09T07:48:11;17.50;52.80
32173;DHT22;18679;45.190;5.722;2022-11-09T07:51:12;17.50;52.90
32173;DHT22;18679;45.190;5.722;2022-11-09T07:54:14;17.60;52.90
32173;DHT22;18679;45.190;5.722;2022-11-09T07:57:15;17.60;53.00
32173;DHT22;18679;45.190;5.722;2022-11-09T08:00:16;17.60;53.10
32173;DHT22;18679;45.190;5.722;2022-11-09T08:03:18;17.60;53.50
32173;DHT22;18679;45.190;5.722;2022-11-09T08:06:19;17.60;53.60
32173;DHT22;18679;45.190;5.722;2022-11-09T08:09:20;17.60;54.10
32173;DHT22;18679;45.190;5.722;2022-11-09T08:12:21;17.60;54.80
32173;DHT22;18679;45.190;5.722;2022-11-09T08:15:23;17.50;55.30
32173;DHT22;18679;45.190;5.722;2022-11-09T08:18:24;17.40;55.50
32173;DHT22;18679;45.190;5.722;2022-11-09T08:21:25;17.40;55.60
32173;DHT22;18679;45.190;5.722;2022-11-09T08:24:26;17.30;55.80
32173;DHT22;18679;45.190;5.722;2022-11-09T08:27:29;17.30;56.00
32173;DHT22;18679;45.190;5.722;2022-11-09T08:30:30;17.30;56.10
32173;DHT22;18679;45.190;5.722;2022-11-09T08:33:39;17.20;56.30
32173;DHT22;18679;45.190;5.722;2022-11-09T08:36:41;17.20;56.60
32173;DHT22;18679;45.190;5.722;2022-11-09T08:39:42;17.20;56.90
32173;DHT22;18679;45.190;5.722;2022-11-09T08:42:43;17.20;57.40
32173;DHT22;18679;45.190;5.722;2022-11-09T08:45:44;17.10;57.90
32173;DHT22;18679;45.190;5.722;2022-11-09T08:48:46;17.10;58.10
32173;DHT22;18679;45.190;5.722;2022-11-09T08:51:47;17.10;58.20
32173;DHT22;18679;45.190;5.722;2022-11-09T08:54:48;17.10;58.40
32173;DHT22;18679;45.190;5.722;2022-11-09T08:57:53;17.10;58.70
32173;DHT22;18679;45.190;5.722;2022-11-09T09:00:54;17.10;59.20
32173;DHT22;18679;45.190;5.722;2022-11-09T09:03:55;17.00;59.50
32173;DHT22;18679;45.190;5.722;2022-11-09T09:06:57;17.00;59.70
32173;DHT22;18679;45.190;5.722;2022-11-09T09:09:59;17.00;60.30
32173;DHT22;18679;45.190;5.722;2022-11-09T09:13:02;17.00;60.60
32173;DHT22;18679;45.190;5.722;2022-11-09T09:16:14;16.90;60.70
32173;DHT22;18679;45.190;5.722;2022-11-09T09:19:15;16.90;60.80
32173;DHT22;18679;45.190;5.722;2022-11-09T09:22:16;16.90;60.90
32173;DHT22;18679;45.190;5.722;2022-11-09T09:25:17;16.90;61.10
32173;DHT22;18679;45.190;5.722;2022-11-09T09:28:18;16.90;61.70
32173;DHT22;18679;45.190;5.722;2022-11-09T09:31:19;16.90;62.00
32173;DHT22;18679;45.190;5.722;2022-11-09T09:34:20;16.90;62.10
32173;DHT22;18679;45.190;5.722;2022-11-09T09:37:22;16.90;62.20
32173;DHT22;18679;45.190;5.722;2022-11-09T09:40:29;16.90;62.30
32173;DHT22;18679;45.190;5.722;2022-11-09T09:43:41;17.00;62.80
32173;DHT22;18679;45.190;5.722;2022-11-09T09:50:17;16.90;63.20
32173;DHT22;18679;45.190;5.722;2022-11-09T09:53:30;16.90;63.30
32173;DHT22;18679;45.190;5.722;2022-11-09T09:56:39;17.00;63.90
32173;DHT22;18679;45.190;5.722;2022-11-09T09:59:47;17.00;64.00
32173;DHT22;18679;45.190;5.722;2022-11-09T10:02:50;16.90;64.20
32173;DHT22;18679;45.190;5.722;2022-11-09T10:09:42;17.00;64.20
32173;DHT22;18679;45.190;5.722;2022-11-09T10:13:15;17.00;64.40
32173;DHT22;18679;45.190;5.722;2022-11-09T10:23:14;17.00;64.70
32173;DHT22;18679;45.190;5.722;2022-11-09T10:26:26;17.00;64.40
32173;DHT22;18679;45.190;5.722;2022-11-09T10:29:43;17.00;64.20
32173;DHT22;18679;45.190;5.722;2022-11-09T10:32:53;17.10;64.30
32173;DHT22;18679;45.190;5.722;2022-11-09T10:36:28;17.10;64.30
32173;DHT22;18679;45.190;5.722;2022-11-09T10:43:36;17.20;64.10
32173;DHT22;18679;45.190;5.722;2022-11-09T10:50:36;17.30;63.70
32173;DHT22;18679;45.190;5.722;2022-11-09T10:54:28;17.40;63.60
32173;DHT22;18679;45.190;5.722;2022-11-09T11:01:22;17.50;63.40
32173;DHT22;18679;45.190;5.722;2022-11-09T11:04:42;17.50;63.50
32173;DHT22;18679;45.190;5.722;2022-11-09T11:08:30;17.50;63.50
32173;DHT22;18679;45.190;5.722;2022-11-09T11:12:14;17.50;63.60
32173;DHT22;18679;45.190;5.722;2022-11-09T11:15:38;17.50;63.60
32173;DHT22;18679;45.190;5.722;2022-11-09T11:18:57;17.50;63.60
32173;DHT22;18679;45.190;5.722;2022-11-09T11:22:18;17.50;63.70
32173;DHT22;18679;45.190;5.722;2022-11-09T11:32:43;17.40;64.50
32173;DHT22;18679;45.190;5.722;2022-11-09T11:43:19;17.30;65.40
32173;DHT22;18679;45.190;5.722;2022-11-09T11:46:46;17.20;65.60
32173;DHT22;18679;45.190;5.722;2022-11-09T11:57:33;17.30;66.00
32173;DHT22;18679;45.190;5.722;2022-11-09T12:08:40;17.20;66.10
32173;DHT22;18679;45.190;5.722;2022-11-09T12:15:36;17.10;66.20
32173;DHT22;18679;45.190;5.722;2022-11-09T12:22:53;17.10;66.40
32173;DHT22;18679;45.190;5.722;2022-11-09T12:26:41;17.10;66.50
32173;DHT22;18679;45.190;5.722;2022-11-09T12:30:13;17.10;66.70
32173;DHT22;18679;45.190;5.722;2022-11-09T12:34:17;17.10;66.90
32173;DHT22;18679;45.190;5.722;2022-11-09T12:41:20;17.00;67.20
32173;DHT22;18679;45.190;5.722;2022-11-09T12:45:02;17.00;67.20
32173;DHT22;18679;45.190;5.722;2022-11-09T12:48:27;16.90;67.40
32173;DHT22;18679;45.190;5.722;2022-11-09T12:51:48;16.90;67.50
32173;DHT22;18679;45.190;5.722;2022-11-09T12:55:13;16.90;67.70
32173;DHT22;18679;45.190;5.722;2022-11-09T12:58:36;16.80;67.80
32173;DHT22;18679;45.190;5.722;2022-11-09T13:01:58;16.80;68.00
32173;DHT22;18679;45.190;5.722;2022-11-09T13:05:36;16.70;68.90
32173;DHT22;18679;45.190;5.722;2022-11-09T13:09:02;16.60;68.50
32173;DHT22;18679;45.190;5.722;2022-11-09T13:12:38;16.50;68.60
32173;DHT22;18679;45.190;5.722;2022-11-09T13:29:50;16.40;69.40
32173;DHT22;18679;45.190;5.722;2022-11-09T13:33:23;16.40;69.30
32173;DHT22;18679;45.190;5.722;2022-11-09T13:36:43;16.40;69.50
32173;DHT22;18679;45.190;5.722;2022-11-09T13:44:07;16.40;69.30
32173;DHT22;18679;45.190;5.722;2022-11-09T13:47:34;16.40;69.30
32173;DHT22;18679;45.190;5.722;2022-11-09T13:50:58;16.50;69.20
32173;DHT22;18679;45.190;5.722;2022-11-09T13:54:31;16.50;69.20
32173;DHT22;18679;45.190;5.722;2022-11-09T13:57:53;16.40;69.40
32173;DHT22;18679;45.190;5.722;2022-11-09T14:01:34;16.40;69.60
32173;DHT22;18679;45.190;5.722;2022-11-09T14:04:55;16.30;69.70
32173;DHT22;18679;45.190;5.722;2022-11-09T14:08:28;16.30;69.70
32173;DHT22;18679;45.190;5.722;2022-11-09T14:22:39;16.30;70.20
32173;DHT22;18679;45.190;5.722;2022-11-09T14:26:14;16.20;70.30
32173;DHT22;18679;45.190;5.722;2022-11-09T14:29:35;16.20;70.40
32173;DHT22;18679;45.190;5.722;2022-11-09T14:32:57;16.30;70.30
32173;DHT22;18679;45.190;5.722;2022-11-09T14:36:17;16.30;70.30
32173;DHT22;18679;45.190;5.722;2022-11-09T14:39:37;16.30;70.20
32173;DHT22;18679;45.190;5.722;2022-11-09T14:43:45;16.40;70.40
32173;DHT22;18679;45.190;5.722;2022-11-09T14:46:39;16.40;70.40
32173;DHT22;18679;45.190;5.722;2022-11-09T14:49:59;16.40;70.50
32173;DHT22;18679;45.190;5.722;2022-11-09T14:53:31;16.40;70.60
32173;DHT22;18679;45.190;5.722;2022-11-09T14:56:53;16.40;70.70
32173;DHT22;18679;45.190;5.722;2022-11-09T15:00:29;16.40;70.70
32173;DHT22;18679;45.190;5.722;2022-11-09T15:07:32;16.40;71.80
32173;DHT22;18679;45.190;5.722;2022-11-09T15:10:52;16.40;70.80
32173;DHT22;18679;45.190;5.722;2022-11-09T15:17:44;16.40;71.10
32173;DHT22;18679;45.190;5.722;2022-11-09T15:21:30;16.40;71.10
32173;DHT22;18679;45.190;5.722;2022-11-09T15:24:50;16.40;71.10
32173;DHT22;18679;45.190;5.722;2022-11-09T15:31:31;16.50;71.10
32173;DHT22;18679;45.190;5.722;2022-11-09T15:34:54;16.50;71.90
32173;DHT22;18679;45.190;5.722;2022-11-09T15:41:54;16.50;71.10
32173;DHT22;18679;45.190;5.722;2022-11-09T15:45:18;16.50;71.00
32173;DHT22;18679;45.190;5.722;2022-11-09T15:48:38;16.50;71.00
32173;DHT22;18679;45.190;5.722;2022-11-09T15:51:57;16.50;70.90
32173;DHT22;18679;45.190;5.722;2022-11-09T15:55:19;16.40;71.10
32173;DHT22;18679;45.190;5.722;2022-11-09T15:58:42;16.40;71.40
32173;DHT22;18679;45.190;5.722;2022-11-09T16:02:02;16.40;72.20
32173;DHT22;18679;45.190;5.722;2022-11-09T16:05:21;16.40;71.30
32173;DHT22;18679;45.190;5.722;2022-11-09T16:08:47;16.40;71.30
32173;DHT22;18679;45.190;5.722;2022-11-09T16:12:07;16.40;71.40
32173;DHT22;18679;45.190;5.722;2022-11-09T16:15:28;16.30;71.20
32173;DHT22;18679;45.190;5.722;2022-11-09T16:18:49;16.30;71.30
32173;DHT22;18679;45.190;5.722;2022-11-09T16:22:09;16.30;71.30
32173;DHT22;18679;45.190;5.722;2022-11-09T16:25:30;16.40;71.40
32173;DHT22;18679;45.190;5.722;2022-11-09T16:28:49;16.40;71.30
32173;DHT22;18679;45.190;5.722;2022-11-09T16:32:09;16.40;71.10
32173;DHT22;18679;45.190;5.722;2022-11-09T16:35:29;16.40;71.10
32173;DHT22;18679;45.190;5.722;2022-11-09T16:38:51;16.40;71.10
32173;DHT22;18679;45.190;5.722;2022-11-09T16:42:12;16.40;71.10
32173;DHT22;18679;45.190;5.722;2022-11-09T16:45:32;16.40;71.20
32173;DHT22;18679;45.190;5.722;2022-11-09T16:48:53;16.40;71.10
32173;DHT22;18679;45.190;5.722;2022-11-09T16:52:13;16.40;71.10
32173;DHT22;18679;45.190;5.722;2022-11-09T16:55:33;16.40;71.00
32173;DHT22;18679;45.190;5.722;2022-11-09T16:58:53;16.40;71.10
32173;DHT22;18679;45.190;5.722;2022-11-09T17:02:12;16.30;71.10
32173;DHT22;18679;45.190;5.722;2022-11-09T17:05:32;16.30;71.30
32173;DHT22;18679;45.190;5.722;2022-11-09T17:08:55;16.30;71.40
32173;DHT22;18679;45.190;5.722;2022-11-09T17:12:15;16.30;71.60
32173;DHT22;18679;45.190;5.722;2022-11-09T17:15:43;16.40;71.70
32173;DHT22;18679;45.190;5.722;2022-11-09T17:19:03;16.40;71.70
32173;DHT22;18679;45.190;5.722;2022-11-09T17:22:24;16.40;71.60
32173;DHT22;18679;45.190;5.722;2022-11-09T17:26:02;16.40;71.60
32173;DHT22;18679;45.190;5.722;2022-11-09T17:29:22;16.40;71.60
32173;DHT22;18679;45.190;5.722;2022-11-09T17:32:43;16.40;71.60
32173;DHT22;18679;45.190;5.722;2022-11-09T17:36:08;16.40;71.60
32173;DHT22;18679;45.190;5.722;2022-11-09T17:39:29;16.40;71.60
32173;DHT22;18679;45.190;5.722;2022-11-09T17:42:48;16.40;71.60
32173;DHT22;18679;45.190;5.722;2022-11-09T17:46:14;16.30;71.60
32173;DHT22;18679;45.190;5.722;2022-11-09T17:49:34;16.30;71.60
32173;DHT22;18679;45.190;5.722;2022-11-09T17:52:54;16.30;71.70
32173;DHT22;18679;45.190;5.722;2022-11-09T17:56:14;16.30;71.80
32173;DHT22;18679;45.190;5.722;2022-11-09T17:59:33;16.30;71.80
32173;DHT22;18679;45.190;5.722;2022-11-09T18:02:55;16.30;71.90
32173;DHT22;18679;45.190;5.722;2022-11-09T18:06:17;16.30;71.90
32173;DHT22;18679;45.190;5.722;2022-11-09T18:09:38;16.30;71.90
32173;DHT22;18679;45.190;5.722;2022-11-09T18:12:57;16.40;72.00
32173;DHT22;18679;45.190;5.722;2022-11-09T18:16:18;16.40;71.80
32173;DHT22;18679;45.190;5.722;2022-11-09T18:19:38;16.40;71.90
32173;DHT22;18679;45.190;5.722;2022-11-09T18:22:57;16.40;71.80
32173;DHT22;18679;45.190;5.722;2022-11-09T18:26:17;16.40;71.80
32173;DHT22;18679;45.190;5.722;2022-11-09T18:29:37;16.50;71.80
32173;DHT22;18679;45.190;5.722;2022-11-09T18:32:56;16.50;71.70
32173;DHT22;18679;45.190;5.722;2022-11-09T18:36:17;16.50;71.50
32173;DHT22;18679;45.190;5.722;2022-11-09T18:39:39;16.60;71.60
32173;DHT22;18679;45.190;5.722;2022-11-09T18:42:58;16.60;71.50
32173;DHT22;18679;45.190;5.722;2022-11-09T18:46:19;16.60;72.40
32173;DHT22;18679;45.190;5.722;2022-11-09T18:49:39;16.60;71.50
32173;DHT22;18679;45.190;5.722;2022-11-09T18:52:59;16.70;71.50
32173;DHT22;18679;45.190;5.722;2022-11-09T18:56:23;16.70;71.50
32173;DHT22;18679;45.190;5.722;2022-11-09T18:59:43;16.70;71.40
32173;DHT22;18679;45.190;5.722;2022-11-09T19:03:02;16.70;71.40
32173;DHT22;18679;45.190;5.722;2022-11-09T19:06:22;16.70;71.40
32173;DHT22;18679;45.190;5.722;2022-11-09T19:09:43;16.80;71.40
32173;DHT22;18679;45.190;5.722;2022-11-09T19:13:03;16.80;71.40
32173;DHT22;18679;45.190;5.722;2022-11-09T19:16:23;16.80;71.40
32173;DHT22;18679;45.190;5.722;2022-11-09T19:19:43;16.80;71.50
32173;DHT22;18679;45.190;5.722;2022-11-09T19:23:02;16.80;71.50
32173;DHT22;18679;45.190;5.722;2022-11-09T19:26:22;16.80;71.40
32173;DHT22;18679;45.190;5.722;2022-11-09T19:29:41;16.80;71.40
32173;DHT22;18679;45.190;5.722;2022-11-09T19:33:01;16.70;71.40
32173;DHT22;18679;45.190;5.722;2022-11-09T19:36:28;16.80;71.40
32173;DHT22;18679;45.190;5.722;2022-11-09T19:39:48;16.80;71.30
32173;DHT22;18679;45.190;5.722;2022-11-09T19:43:07;16.80;71.20
32173;DHT22;18679;45.190;5.722;2022-11-09T19:46:28;16.80;71.20
32173;DHT22;18679;45.190;5.722;2022-11-09T19:49:51;16.80;71.20
32173;DHT22;18679;45.190;5.722;2022-11-09T19:53:11;16.80;71.30
32173;DHT22;18679;45.190;5.722;2022-11-09T19:56:31;16.70;71.20
32173;DHT22;18679;45.190;5.722;2022-11-09T19:59:51;16.70;71.30
32173;DHT22;18679;45.190;5.722;2022-11-09T20:03:10;16.70;71.20
32173;DHT22;18679;45.190;5.722;2022-11-09T20:06:30;16.70;71.10
32173;DHT22;18679;45.190;5.722;2022-11-09T20:09:49;16.70;71.10
32173;DHT22;18679;45.190;5.722;2022-11-09T20:13:10;16.70;71.10
32173;DHT22;18679;45.190;5.722;2022-11-09T20:16:31;16.70;71.20
32173;DHT22;18679;45.190;5.722;2022-11-09T20:19:51;16.60;71.20
32173;DHT22;18679;45.190;5.722;2022-11-09T20:23:10;16.60;71.10
32173;DHT22;18679;45.190;5.722;2022-11-09T20:26:30;16.70;71.20
32173;DHT22;18679;45.190;5.722;2022-11-09T20:29:50;16.70;71.30
32173;DHT22;18679;45.190;5.722;2022-11-09T20:33:10;16.60;71.20
32173;DHT22;18679;45.190;5.722;2022-11-09T20:36:29;16.60;71.30
32173;DHT22;18679;45.190;5.722;2022-11-09T20:39:49;16.60;71.40
32173;DHT22;18679;45.190;5.722;2022-11-09T20:43:09;16.60;71.30
32173;DHT22;18679;45.190;5.722;2022-11-09T20:46:29;16.60;71.20
32173;DHT22;18679;45.190;5.722;2022-11-09T20:49:48;16.60;71.20
32173;DHT22;18679;45.190;5.722;2022-11-09T20:53:08;16.50;71.20
32173;DHT22;18679;45.190;5.722;2022-11-09T20:56:27;16.50;71.40
32173;DHT22;18679;45.190;5.722;2022-11-09T20:59:47;16.40;71.50
32173;DHT22;18679;45.190;5.722;2022-11-09T21:03:07;16.40;71.80
32173;DHT22;18679;45.190;5.722;2022-11-09T21:06:27;16.30;71.80
32173;DHT22;18679;45.190;5.722;2022-11-09T21:09:47;16.30;72.00
32173;DHT22;18679;45.190;5.722;2022-11-09T21:13:06;16.30;72.00
32173;DHT22;18679;45.190;5.722;2022-11-09T21:16:26;16.20;72.00
32173;DHT22;18679;45.190;5.722;2022-11-09T21:19:46;16.30;72.10
32173;DHT22;18679;45.190;5.722;2022-11-09T21:23:05;16.30;72.10
32173;DHT22;18679;45.190;5.722;2022-11-09T21:26:31;16.30;72.00
32173;DHT22;18679;45.190;5.722;2022-11-09T21:30:10;16.30;72.00
32173;DHT22;18679;45.190;5.722;2022-11-09T21:33:30;16.30;72.20
32173;DHT22;18679;45.190;5.722;2022-11-09T21:36:51;16.30;72.30
32173;DHT22;18679;45.190;5.722;2022-11-09T21:40:10;16.30;72.30
32173;DHT22;18679;45.190;5.722;2022-11-09T21:43:30;16.30;72.30
32173;DHT22;18679;45.190;5.722;2022-11-09T21:46:50;16.20;72.20
32173;DHT22;18679;45.190;5.722;2022-11-09T21:50:09;16.20;72.30
32173;DHT22;18679;45.190;5.722;2022-11-09T21:53:29;16.30;72.30
32173;DHT22;18679;45.190;5.722;2022-11-09T21:56:51;16.20;72.20
32173;DHT22;18679;45.190;5.722;2022-11-09T22:00:12;16.30;72.20
32173;DHT22;18679;45.190;5.722;2022-11-09T22:03:32;16.20;72.10
32173;DHT22;18679;45.190;5.722;2022-11-09T22:06:52;16.20;72.10